sensor_id;sensor_type;location;lat;lon;timestamp;P1;durP1;ratioP1;P2;durP2;ratioP2
8580;SDS011;4328;48.622;9.230;2022-08-01T00:00:04;2.30;;;2.10;;
8580;SDS011;4328;48.622;9.230;2022-08-01T00:02:32;2.83;;;2.20;;
8580;SDS011;4328;48.622;9.230;2022-08-01T00:05:00;2.63;;;2.30;;
8580;SDS011;4328;48.622;9.230;2022-08-01T00:07:27;3.93;;;2.20;;
8580;SDS011;4328;48.622;9.230;2022-08-01T00:09:54;2.50;;;2.30;;
8580;SDS011;4328;48.622;9.230;2022-08-01T00:12:20;2.30;;;2.10;;
8580;SDS011;4328;48.622;9.230;2022-08-01T00:14:47;2.50;;;2.07;;
8580;SDS011;4328;48.622;9.230;2022-08-01T00:17:13;2.27;;;2.10;;
8580;SDS011;4328;48.622;9.230;2022-08-01T00:19:40;2.70;;;2.20;;
8580;SDS011;4328;48.622;9.230;2022-08-01T00:22:08;3.90;;;2.17;;
8580;SDS011;4328;48.622;9.230;2022-08-01T00:24:34;2.27;;;2.07;;
8580;SDS011;4328;48.622;9.230;2022-08-01T00:27:01;3.70;;;2.13;;
8580;SDS011;4328;48.622;9.230;2022-08-01T00:29:28;2.50;;;2.30;;
8580;SDS011;4328;48.622;9.230;2022-08-01T00:31:54;2.27;;;2.17;;
8580;SDS011;4328;48.622;9.230;2022-08-01T00:34:21;3.00;;;2.10;;
8580;SDS011;4328;48.622;9.230;2022-08-01T00:36:47;2.87;;;2.40;;
8580;SDS011;4328;48.622;9.230;2022-08-01T00:39:15;3.30;;;2.10;;
8580;SDS011;4328;48.622;9.230;2022-08-01T00:41:42;2.30;;;2.10;;
8580;SDS011;4328;48.622;9.230;2022-08-01T00:44:09;4.07;;;2.43;;
8580;SDS011;4328;48.622;9.230;2022-08-01T00:46:35;2.10;;;2.00;;
8580;SDS011;4328;48.622;9.230;2022-08-01T00:49:02;1.97;;;1.87;;
8580;SDS011;4328;48.622;9.230;2022-08-01T00:51:29;2.47;;;2.10;;
8580;SDS011;4328;48.622;9.230;2022-08-01T00:53:58;3.03;;;2.00;;
8580;SDS011;4328;48.622;9.230;2022-08-01T00:56:27;2.53;;;2.17;;
8580;SDS011;4328;48.622;9.230;2022-08-01T00:58:54;3.60;;;2.20;;
8580;SDS011;4328;48.622;9.230;2022-08-01T01:01:21;2.37;;;2.10;;
8580;SDS011;4328;48.622;9.230;2022-08-01T01:03:48;2.00;;;1.90;;
8580;SDS011;4328;48.622;9.230;2022-08-01T01:06:21;3.17;;;2.60;;
8580;SDS011;4328;48.622;9.230;2022-08-01T01:08:54;2.30;;;2.10;;
8580;SDS011;4328;48.622;9.230;2022-08-01T01:11:31;2.97;;;2.00;;
8580;SDS011;4328;48.622;9.230;2022-08-01T01:14:08;2.47;;;2.33;;
8580;SDS011;4328;48.622;9.230;2022-08-01T01:16:39;2.30;;;2.10;;
8580;SDS011;4328;48.622;9.230;2022-08-01T01:19:08;2.30;;;2.17;;
8580;SDS011;4328;48.622;9.230;2022-08-01T01:21:46;2.83;;;2.20;;
8580;SDS011;4328;48.622;9.230;2022-08-01T01:24:28;2.13;;;2.00;;
8580;SDS011;4328;48.622;9.230;2022-08-01T01:27:06;2.47;;;2.37;;
8580;SDS011;4328;48.622;9.230;2022-08-01T01:29:42;2.30;;;2.13;;
8580;SDS011;4328;48.622;9.230;2022-08-01T01:32:13;2.33;;;2.10;;
8580;SDS011;4328;48.622;9.230;2022-08-01T01:34:44;2.20;;;1.87;;
8580;SDS011;4328;48.622;9.230;2022-08-01T01:37:14;2.30;;;2.10;;
8580;SDS011;4328;48.622;9.230;2022-08-01T01:39:44;2.10;;;2.00;;
8580;SDS011;4328;48.622;9.230;2022-08-01T01:42:14;2.50;;;2.30;;
8580;SDS011;4328;48.622;9.230;2022-08-01T01:44:44;3.43;;;2.17;;
8580;SDS011;4328;48.622;9.230;2022-08-01T01:47:12;4.13;;;2.20;;
8580;SDS011;4328;48.622;9.230;2022-08-01T01:49:40;2.37;;;2.17;;
8580;SDS011;4328;48.622;9.230;2022-08-01T01:52:10;1.80;;;1.70;;
8580;SDS011;4328;48.622;9.230;2022-08-01T01:54:40;4.30;;;2.10;;
8580;SDS011;4328;48.622;9.230;2022-08-01T01:57:10;2.10;;;1.90;;
8580;SDS011;4328;48.622;9.230;2022-08-01T01:59:39;2.40;;;2.30;;
8580;SDS011;4328;48.622;9.230;2022-08-01T02:02:07;2.33;;;1.90;;
8580;SDS011;4328;48.622;9.230;2022-08-01T02:04:36;2.27;;;2.17;;
8580;SDS011;4328;48.622;9.230;2022-08-01T02:07:07;4.10;;;2.30;;
8580;SDS011;4328;48.622;9.230;2022-08-01T02:09:35;3.73;;;2.30;;
8580;SDS011;4328;48.622;9.230;2022-08-01T02:12:04;2.33;;;2.10;;
8580;SDS011;4328;48.622;9.230;2022-08-01T02:14:32;3.37;;;2.30;;
8580;SDS011;4328;48.622;9.230;2022-08-01T02:17:01;5.80;;;2.50;;
8580;SDS011;4328;48.622;9.230;2022-08-01T02:19:30;2.37;;;2.17;;
8580;SDS011;4328;48.622;9.230;2022-08-01T02:22:00;2.80;;;2.10;;
8580;SDS011;4328;48.622;9.230;2022-08-01T02:24:31;2.33;;;2.07;;
8580;SDS011;4328;48.622;9.230;2022-08-01T02:27:05;3.03;;;2.10;;
8580;SDS011;4328;48.622;9.230;2022-08-01T02:29:36;2.40;;;2.20;;
8580;SDS011;4328;48.622;9.230;2022-08-01T02:32:06;4.00;;;2.13;;
8580;SDS011;4328;48.622;9.230;2022-08-01T02:34:38;3.83;;;2.40;;
8580;SDS011;4328;48.622;9.230;2022-08-01T02:37:07;2.60;;;2.20;;
8580;SDS011;4328;48.622;9.230;2022-08-01T02:39:36;2.10;;;2.00;;
8580;SDS011;4328;48.622;9.230;2022-08-01T02:42:05;2.37;;;2.17;;
8580;SDS011;4328;48.622;9.230;2022-08-01T02:44:35;2.30;;;2.20;;
8580;SDS011;4328;48.622;9.230;2022-08-01T02:47:05;2.50;;;2.30;;
8580;SDS011;4328;48.622;9.230;2022-08-01T02:49:34;4.53;;;2.30;;
8580;SDS011;4328;48.622;9.230;2022-08-01T02:52:06;3.03;;;2.20;;
8580;SDS011;4328;48.622;9.230;2022-08-01T02:54:35;2.60;;;2.40;;
8580;SDS011;4328;48.622;9.230;2022-08-01T02:57:03;2.37;;;2.23;;
8580;SDS011;4328;48.622;9.230;2022-08-01T02:59:32;3.70;;;2.60;;
8580;SDS011;4328;48.622;9.230;2022-08-01T03:02:02;3.77;;;2.43;;
8580;SDS011;4328;48.622;9.230;2022-08-01T03:04:30;2.50;;;2.30;;
8580;SDS011;4328;48.622;9.230;2022-08-01T03:07:00;2.60;;;2.40;;
8580;SDS011;4328;48.622;9.230;2022-08-01T03:09:31;2.73;;;2.27;;
8580;SDS011;4328;48.622;9.230;2022-08-01T03:12:03;2.70;;;2.33;;
8580;SDS011;4328;48.622;9.230;2022-08-01T03:14:32;2.80;;;2.23;;
8580;SDS011;4328;48.622;9.230;2022-08-01T03:17:01;2.40;;;2.20;;
8580;SDS011;4328;48.622;9.230;2022-08-01T03:19:30;2.30;;;2.20;;
8580;SDS011;4328;48.622;9.230;2022-08-01T03:21:57;3.10;;;2.27;;
8580;SDS011;4328;48.622;9.230;2022-08-01T03:24:28;2.57;;;2.37;;
8580;SDS011;4328;48.622;9.230;2022-08-01T03:26:59;2.50;;;2.30;;
8580;SDS011;4328;48.622;9.230;2022-08-01T03:29:28;4.07;;;2.47;;
8580;SDS011;4328;48.622;9.230;2022-08-01T03:31:57;2.83;;;2.60;;
8580;SDS011;4328;48.622;9.230;2022-08-01T03:34:26;2.60;;;2.40;;
8580;SDS011;4328;48.622;9.230;2022-08-01T03:36:55;2.60;;;2.40;;
8580;SDS011;4328;48.622;9.230;2022-08-01T03:39:30;2.80;;;2.60;;
8580;SDS011;4328;48.622;9.230;2022-08-01T03:42:01;4.60;;;2.47;;
8580;SDS011;4328;48.622;9.230;2022-08-01T03:44:33;3.07;;;2.40;;
8580;SDS011;4328;48.622;9.230;2022-08-01T03:47:05;4.43;;;2.50;;
8580;SDS011;4328;48.622;9.230;2022-08-01T03:49:35;2.30;;;2.20;;
8580;SDS011;4328;48.622;9.230;2022-08-01T03:52:07;2.60;;;2.40;;
8580;SDS011;4328;48.622;9.230;2022-08-01T03:54:37;3.07;;;2.50;;
8580;SDS011;4328;48.622;9.230;2022-08-01T03:57:06;3.77;;;2.80;;
8580;SDS011;4328;48.622;9.230;2022-08-01T03:59:35;2.40;;;2.30;;
8580;SDS011;4328;48.622;9.230;2022-08-01T04:02:03;2.60;;;2.40;;
8580;SDS011;4328;48.622;9.230;2022-08-01T04:04:30;4.03;;;2.70;;
8580;SDS011;4328;48.622;9.230;2022-08-01T04:06:57;2.70;;;2.50;;
8580;SDS011;4328;48.622;9.230;2022-08-01T04:09:29;2.70;;;2.50;;
8580;SDS011;4328;48.622;9.230;2022-08-01T04:11:57;2.30;;;2.20;;
8580;SDS011;4328;48.622;9.230;2022-08-01T04:14:24;2.67;;;2.43;;
8580;SDS011;4328;48.622;9.230;2022-08-01T04:16:52;4.07;;;2.30;;
8580;SDS011;4328;48.622;9.230;2022-08-01T04:19:18;3.73;;;2.50;;
8580;SDS011;4328;48.622;9.230;2022-08-01T04:21:45;2.63;;;2.47;;
8580;SDS011;4328;48.622;9.230;2022-08-01T04:24:12;2.90;;;2.70;;
8580;SDS011;4328;48.622;9.230;2022-08-01T04:26:41;2.60;;;2.40;;
8580;SDS011;4328;48.622;9.230;2022-08-01T04:29:11;2.90;;;2.40;;
8580;SDS011;4328;48.622;9.230;2022-08-01T04:31:42;2.27;;;2.17;;
8580;SDS011;4328;48.622;9.230;2022-08-01T04:34:11;3.33;;;2.77;;
8580;SDS011;4328;48.622;9.230;2022-08-01T04:36:41;3.33;;;3.00;;
8580;SDS011;4328;48.622;9.230;2022-08-01T04:39:09;4.23;;;2.60;;
8580;SDS011;4328;48.622;9.230;2022-08-01T04:41:38;4.23;;;2.73;;
8580;SDS011;4328;48.622;9.230;2022-08-01T04:44:06;3.57;;;2.43;;
8580;SDS011;4328;48.622;9.230;2022-08-01T04:46:35;2.50;;;2.30;;
8580;SDS011;4328;48.622;9.230;2022-08-01T04:49:03;2.60;;;2.40;;
8580;SDS011;4328;48.622;9.230;2022-08-01T04:51:31;2.90;;;2.70;;
8580;SDS011;4328;48.622;9.230;2022-08-01T04:53:58;2.50;;;2.30;;
8580;SDS011;4328;48.622;9.230;2022-08-01T04:56:26;2.87;;;2.60;;
8580;SDS011;4328;48.622;9.230;2022-08-01T04:58:53;3.03;;;2.60;;
8580;SDS011;4328;48.622;9.230;2022-08-01T05:01:34;4.20;;;2.83;;
8580;SDS011;4328;48.622;9.230;2022-08-01T05:04:01;2.83;;;2.63;;
8580;SDS011;4328;48.622;9.230;2022-08-01T05:06:28;2.60;;;2.40;;
8580;SDS011;4328;48.622;9.230;2022-08-01T05:08:54;3.10;;;2.40;;
8580;SDS011;4328;48.622;9.230;2022-08-01T05:11:21;2.70;;;2.50;;
8580;SDS011;4328;48.622;9.230;2022-08-01T05:13:48;2.77;;;2.53;;
8580;SDS011;4328;48.622;9.230;2022-08-01T05:16:16;2.67;;;2.43;;
8580;SDS011;4328;48.622;9.230;2022-08-01T05:18:44;3.03;;;2.50;;
8580;SDS011;4328;48.622;9.230;2022-08-01T05:21:11;2.30;;;2.20;;
8580;SDS011;4328;48.622;9.230;2022-08-01T05:23:37;2.60;;;2.40;;
8580;SDS011;4328;48.622;9.230;2022-08-01T05:26:04;2.73;;;2.53;;
8580;SDS011;4328;48.622;9.230;2022-08-01T05:28:30;3.50;;;2.50;;
8580;SDS011;4328;48.622;9.230;2022-08-01T05:30:57;5.20;;;2.50;;
8580;SDS011;4328;48.622;9.230;2022-08-01T05:33:23;2.60;;;2.40;;
8580;SDS011;4328;48.622;9.230;2022-08-01T05:35:51;2.90;;;2.70;;
8580;SDS011;4328;48.622;9.230;2022-08-01T05:38:18;3.07;;;2.43;;
8580;SDS011;4328;48.622;9.230;2022-08-01T05:40:45;3.33;;;2.37;;
8580;SDS011;4328;48.622;9.230;2022-08-01T05:43:11;2.90;;;2.50;;
8580;SDS011;4328;48.622;9.230;2022-08-01T05:45:38;5.77;;;2.77;;
8580;SDS011;4328;48.622;9.230;2022-08-01T05:48:06;3.07;;;2.43;;
8580;SDS011;4328;48.622;9.230;2022-08-01T05:50:33;2.70;;;2.50;;
8580;SDS011;4328;48.622;9.230;2022-08-01T05:53:01;2.50;;;2.30;;
8580;SDS011;4328;48.622;9.230;2022-08-01T05:55:27;2.80;;;2.60;;
8580;SDS011;4328;48.622;9.230;2022-08-01T05:57:54;2.80;;;2.60;;
8580;SDS011;4328;48.622;9.230;2022-08-01T06:00:21;2.80;;;2.60;;
8580;SDS011;4328;48.622;9.230;2022-08-01T06:02:47;3.20;;;2.87;;
8580;SDS011;4328;48.622;9.230;2022-08-01T06:05:15;3.07;;;2.60;;
8580;SDS011;4328;48.622;9.230;2022-08-01T06:07:42;2.63;;;2.50;;
8580;SDS011;4328;48.622;9.230;2022-08-01T06:10:10;4.10;;;2.63;;
8580;SDS011;4328;48.622;9.230;2022-08-01T06:12:37;3.57;;;2.67;;
8580;SDS011;4328;48.622;9.230;2022-08-01T06:15:04;2.70;;;2.50;;
8580;SDS011;4328;48.622;9.230;2022-08-01T06:17:31;3.17;;;2.53;;
8580;SDS011;4328;48.622;9.230;2022-08-01T06:19:57;2.60;;;2.40;;
8580;SDS011;4328;48.622;9.230;2022-08-01T06:22:24;2.50;;;2.30;;
8580;SDS011;4328;48.622;9.230;2022-08-01T06:24:52;2.80;;;2.60;;
8580;SDS011;4328;48.622;9.230;2022-08-01T06:27:20;2.50;;;2.40;;
8580;SDS011;4328;48.622;9.230;2022-08-01T06:29:47;3.50;;;2.47;;
8580;SDS011;4328;48.622;9.230;2022-08-01T06:32:14;2.50;;;2.30;;
8580;SDS011;4328;48.622;9.230;2022-08-01T06:34:41;2.40;;;2.20;;
8580;SDS011;4328;48.622;9.230;2022-08-01T06:37:08;2.77;;;2.57;;
8580;SDS011;4328;48.622;9.230;2022-08-01T06:39:34;2.83;;;2.47;;
8580;SDS011;4328;48.622;9.230;2022-08-01T06:42:01;2.40;;;2.20;;
8580;SDS011;4328;48.622;9.230;2022-08-01T06:44:29;3.63;;;2.30;;
8580;SDS011;4328;48.622;9.230;2022-08-01T06:46:56;2.50;;;2.30;;
8580;SDS011;4328;48.622;9.230;2022-08-01T06:49:23;2.60;;;2.40;;
8580;SDS011;4328;48.622;9.230;2022-08-01T06:51:50;2.43;;;2.33;;
8580;SDS011;4328;48.622;9.230;2022-08-01T06:54:17;2.40;;;2.30;;
8580;SDS011;4328;48.622;9.230;2022-08-01T06:56:44;2.70;;;2.50;;
8580;SDS011;4328;48.622;9.230;2022-08-01T06:59:11;2.77;;;2.33;;
8580;SDS011;4328;48.622;9.230;2022-08-01T07:01:39;3.47;;;2.50;;
8580;SDS011;4328;48.622;9.230;2022-08-01T07:04:08;2.77;;;2.50;;
8580;SDS011;4328;48.622;9.230;2022-08-01T07:06:35;2.50;;;2.30;;
8580;SDS011;4328;48.622;9.230;2022-08-01T07:09:01;3.30;;;2.30;;
8580;SDS011;4328;48.622;9.230;2022-08-01T07:11:28;3.00;;;2.40;;
8580;SDS011;4328;48.622;9.230;2022-08-01T07:13:55;2.50;;;2.30;;
8580;SDS011;4328;48.622;9.230;2022-08-01T07:16:22;2.60;;;2.23;;
8580;SDS011;4328;48.622;9.230;2022-08-01T07:18:51;2.43;;;2.33;;
8580;SDS011;4328;48.622;9.230;2022-08-01T07:21:17;3.50;;;2.50;;
8580;SDS011;4328;48.622;9.230;2022-08-01T07:23:44;2.20;;;2.10;;
8580;SDS011;4328;48.622;9.230;2022-08-01T07:26:11;2.50;;;2.30;;
8580;SDS011;4328;48.622;9.230;2022-08-01T07:28:38;3.30;;;2.40;;
8580;SDS011;4328;48.622;9.230;2022-08-01T07:31:04;2.57;;;2.33;;
8580;SDS011;4328;48.622;9.230;2022-08-01T07:33:31;2.30;;;2.10;;
8580;SDS011;4328;48.622;9.230;2022-08-01T07:35:59;2.47;;;2.10;;
8580;SDS011;4328;48.622;9.230;2022-08-01T07:38:26;3.33;;;2.10;;
8580;SDS011;4328;48.622;9.230;2022-08-01T07:40:52;3.30;;;2.10;;
8580;SDS011;4328;48.622;9.230;2022-08-01T07:43:19;1.83;;;1.73;;
8580;SDS011;4328;48.622;9.230;2022-08-01T07:45:46;2.30;;;2.10;;
8580;SDS011;4328;48.622;9.230;2022-08-01T07:48:13;2.00;;;1.83;;
8580;SDS011;4328;48.622;9.230;2022-08-01T07:50:39;2.40;;;1.80;;
8580;SDS011;4328;48.622;9.230;2022-08-01T07:53:07;2.83;;;2.00;;
8580;SDS011;4328;48.622;9.230;2022-08-01T07:55:35;1.87;;;1.70;;
8580;SDS011;4328;48.622;9.230;2022-08-01T07:58:01;1.63;;;1.53;;
8580;SDS011;4328;48.622;9.230;2022-08-01T08:00:28;3.53;;;1.83;;
8580;SDS011;4328;48.622;9.230;2022-08-01T08:02:55;1.73;;;1.63;;
8580;SDS011;4328;48.622;9.230;2022-08-01T08:05:23;2.67;;;1.57;;
8580;SDS011;4328;48.622;9.230;2022-08-01T08:07:50;1.70;;;1.60;;
8580;SDS011;4328;48.622;9.230;2022-08-01T08:10:18;1.80;;;1.70;;
8580;SDS011;4328;48.622;9.230;2022-08-01T08:12:45;1.80;;;1.70;;
8580;SDS011;4328;48.622;9.230;2022-08-01T08:15:12;2.63;;;1.50;;
8580;SDS011;4328;48.622;9.230;2022-08-01T08:17:39;1.70;;;1.60;;
8580;SDS011;4328;48.622;9.230;2022-08-01T08:20:06;1.80;;;1.60;;
8580;SDS011;4328;48.622;9.230;2022-08-01T08:22:34;1.53;;;1.50;;
8580;SDS011;4328;48.622;9.230;2022-08-01T08:25:00;2.00;;;1.87;;
8580;SDS011;4328;48.622;9.230;2022-08-01T08:27:28;1.70;;;1.60;;
8580;SDS011;4328;48.622;9.230;2022-08-01T08:29:56;1.97;;;1.77;;
8580;SDS011;4328;48.622;9.230;2022-08-01T08:32:23;2.13;;;1.80;;
8580;SDS011;4328;48.622;9.230;2022-08-01T08:34:49;1.93;;;1.83;;
8580;SDS011;4328;48.622;9.230;2022-08-01T08:37:16;2.80;;;1.83;;
8580;SDS011;4328;48.622;9.230;2022-08-01T08:39:43;2.27;;;2.10;;
8580;SDS011;4328;48.622;9.230;2022-08-01T08:42:10;2.30;;;2.07;;
8580;SDS011;4328;48.622;9.230;2022-08-01T08:44:39;2.27;;;2.07;;
8580;SDS011;4328;48.622;9.230;2022-08-01T08:47:07;2.53;;;2.30;;
8580;SDS011;4328;48.622;9.230;2022-08-01T08:49:34;1.90;;;1.80;;
8580;SDS011;4328;48.622;9.230;2022-08-01T08:52:02;3.53;;;1.93;;
8580;SDS011;4328;48.622;9.230;2022-08-01T08:54:30;2.90;;;2.20;;
8580;SDS011;4328;48.622;9.230;2022-08-01T08:56:57;2.28;;;2.08;;
8580;SDS011;4328;48.622;9.230;2022-08-01T08:59:24;2.35;;;2.00;;
8580;SDS011;4328;48.622;9.230;2022-08-01T09:01:53;2.33;;;2.13;;
8580;SDS011;4328;48.622;9.230;2022-08-01T09:04:20;2.05;;;1.90;;
8580;SDS011;4328;48.622;9.230;2022-08-01T09:06:48;2.00;;;1.90;;
8580;SDS011;4328;48.622;9.230;2022-08-01T09:09:14;2.00;;;1.90;;
8580;SDS011;4328;48.622;9.230;2022-08-01T09:11:41;3.03;;;1.77;;
8580;SDS011;4328;48.622;9.230;2022-08-01T09:14:09;1.98;;;1.88;;
8580;SDS011;4328;48.622;9.230;2022-08-01T09:16:38;2.35;;;1.90;;
8580;SDS011;4328;48.622;9.230;2022-08-01T09:19:09;2.30;;;2.10;;
8580;SDS011;4328;48.622;9.230;2022-08-01T09:21:38;1.92;;;1.83;;
8580;SDS011;4328;48.622;9.230;2022-08-01T09:24:13;2.70;;;2.22;;
8580;SDS011;4328;48.622;9.230;2022-08-01T09:26:42;2.10;;;2.00;;
8580;SDS011;4328;48.622;9.230;2022-08-01T09:29:17;2.20;;;2.10;;
8580;SDS011;4328;48.622;9.230;2022-08-01T09:31:45;2.53;;;1.80;;
8580;SDS011;4328;48.622;9.230;2022-08-01T09:34:14;2.15;;;2.05;;
8580;SDS011;4328;48.622;9.230;2022-08-01T09:36:45;3.30;;;2.60;;
8580;SDS011;4328;48.622;9.230;2022-08-01T09:39:16;2.25;;;2.10;;
8580;SDS011;4328;48.622;9.230;2022-08-01T09:41:44;2.10;;;2.00;;
8580;SDS011;4328;48.622;9.230;2022-08-01T09:44:11;2.67;;;2.10;;
8580;SDS011;4328;48.622;9.230;2022-08-01T09:46:45;2.00;;;1.90;;
8580;SDS011;4328;48.622;9.230;2022-08-01T09:49:16;2.35;;;2.13;;
8580;SDS011;4328;48.622;9.230;2022-08-01T09:51:54;2.20;;;2.00;;
8580;SDS011;4328;48.622;9.230;2022-08-01T09:54:28;2.03;;;1.90;;
8580;SDS011;4328;48.622;9.230;2022-08-01T09:56:57;2.33;;;2.17;;
8580;SDS011;4328;48.622;9.230;2022-08-01T09:59:34;2.40;;;2.00;;
8580;SDS011;4328;48.622;9.230;2022-08-01T10:02:03;3.92;;;2.50;;
8580;SDS011;4328;48.622;9.230;2022-08-01T10:04:31;2.03;;;1.90;;
8580;SDS011;4328;48.622;9.230;2022-08-01T10:07:03;2.33;;;2.15;;
8580;SDS011;4328;48.622;9.230;2022-08-01T10:09:32;3.65;;;2.20;;
8580;SDS011;4328;48.622;9.230;2022-08-01T10:12:00;2.38;;;2.22;;
8580;SDS011;4328;48.622;9.230;2022-08-01T10:14:28;2.10;;;1.98;;
8580;SDS011;4328;48.622;9.230;2022-08-01T10:16:57;2.30;;;2.20;;
8580;SDS011;4328;48.622;9.230;2022-08-01T10:19:26;2.22;;;2.10;;
8580;SDS011;4328;48.622;9.230;2022-08-01T10:21:55;2.15;;;1.92;;
8580;SDS011;4328;48.622;9.230;2022-08-01T10:24:24;2.30;;;2.20;;
8580;SDS011;4328;48.622;9.230;2022-08-01T10:26:52;2.03;;;1.80;;
8580;SDS011;4328;48.622;9.230;2022-08-01T10:29:24;2.40;;;2.20;;
8580;SDS011;4328;48.622;9.230;2022-08-01T10:31:53;2.13;;;2.03;;
8580;SDS011;4328;48.622;9.230;2022-08-01T10:34:20;2.58;;;1.90;;
8580;SDS011;4328;48.622;9.230;2022-08-01T10:36:46;2.20;;;2.10;;
8580;SDS011;4328;48.622;9.230;2022-08-01T10:39:15;2.47;;;1.90;;
8580;SDS011;4328;48.622;9.230;2022-08-01T10:41:44;2.20;;;2.00;;
8580;SDS011;4328;48.622;9.230;2022-08-01T10:44:11;2.00;;;1.90;;
8580;SDS011;4328;48.622;9.230;2022-08-01T10:46:39;2.53;;;2.40;;
8580;SDS011;4328;48.622;9.230;2022-08-01T10:49:09;3.00;;;2.80;;
8580;SDS011;4328;48.622;9.230;2022-08-01T10:51:39;2.97;;;2.78;;
8580;SDS011;4328;48.622;9.230;2022-08-01T10:54:07;3.63;;;3.20;;
8580;SDS011;4328;48.622;9.230;2022-08-01T10:56:39;3.10;;;2.90;;
8580;SDS011;4328;48.622;9.230;2022-08-01T10:59:08;3.20;;;3.00;;
8580;SDS011;4328;48.622;9.230;2022-08-01T11:01:35;3.03;;;2.83;;
8580;SDS011;4328;48.622;9.230;2022-08-01T11:04:03;3.15;;;2.95;;
8580;SDS011;4328;48.622;9.230;2022-08-01T11:06:36;2.92;;;2.72;;
8580;SDS011;4328;48.622;9.230;2022-08-01T11:09:15;3.60;;;3.30;;
8580;SDS011;4328;48.622;9.230;2022-08-01T11:11:57;4.40;;;3.70;;
8580;SDS011;4328;48.622;9.230;2022-08-01T11:14:26;3.47;;;3.25;;
8580;SDS011;4328;48.622;9.230;2022-08-01T11:16:54;3.97;;;3.67;;
8580;SDS011;4328;48.622;9.230;2022-08-01T11:19:21;5.10;;;3.53;;
8580;SDS011;4328;48.622;9.230;2022-08-01T11:21:58;4.55;;;3.67;;
8580;SDS011;4328;48.622;9.230;2022-08-01T11:24:54;3.95;;;3.65;;
8580;SDS011;4328;48.622;9.230;2022-08-01T11:27:26;4.05;;;3.75;;
8580;SDS011;4328;48.622;9.230;2022-08-01T11:32:51;5.53;;;3.83;;
8580;SDS011;4328;48.622;9.230;2022-08-01T11:35:19;3.78;;;3.45;;
8580;SDS011;4328;48.622;9.230;2022-08-01T11:37:48;4.15;;;3.85;;
8580;SDS011;4328;48.622;9.230;2022-08-01T11:40:19;5.15;;;3.90;;
8580;SDS011;4328;48.622;9.230;2022-08-01T11:42:50;4.43;;;3.90;;
8580;SDS011;4328;48.622;9.230;2022-08-01T11:45:47;4.15;;;3.50;;
8580;SDS011;4328;48.622;9.230;2022-08-01T11:48:17;4.17;;;3.87;;
8580;SDS011;4328;48.622;9.230;2022-08-01T11:50:45;3.50;;;3.30;;
8580;SDS011;4328;48.622;9.230;2022-08-01T11:53:12;4.00;;;3.63;;
8580;SDS011;4328;48.622;9.230;2022-08-01T11:55:43;3.03;;;2.77;;
8580;SDS011;4328;48.622;9.230;2022-08-01T11:58:14;3.10;;;2.80;;
8580;SDS011;4328;48.622;9.230;2022-08-01T12:00:41;3.05;;;2.85;;
8580;SDS011;4328;48.622;9.230;2022-08-01T12:03:15;3.08;;;2.88;;
8580;SDS011;4328;48.622;9.230;2022-08-01T12:05:43;3.20;;;3.00;;
8580;SDS011;4328;48.622;9.230;2022-08-01T12:08:10;3.13;;;2.90;;
8580;SDS011;4328;48.622;9.230;2022-08-01T12:10:37;3.17;;;2.88;;
8580;SDS011;4328;48.622;9.230;2022-08-01T12:13:04;2.83;;;2.50;;
8580;SDS011;4328;48.622;9.230;2022-08-01T12:15:34;5.10;;;3.00;;
8580;SDS011;4328;48.622;9.230;2022-08-01T12:18:02;2.95;;;2.63;;
8580;SDS011;4328;48.622;9.230;2022-08-01T12:20:31;2.95;;;2.60;;
8580;SDS011;4328;48.622;9.230;2022-08-01T12:22:59;2.88;;;2.67;;
8580;SDS011;4328;48.622;9.230;2022-08-01T12:25:27;3.10;;;2.90;;
8580;SDS011;4328;48.622;9.230;2022-08-01T12:27:54;2.75;;;2.55;;
8580;SDS011;4328;48.622;9.230;2022-08-01T12:30:21;2.75;;;2.55;;
8580;SDS011;4328;48.622;9.230;2022-08-01T12:32:50;3.60;;;2.55;;
8580;SDS011;4328;48.622;9.230;2022-08-01T12:35:18;2.72;;;2.58;;
8580;SDS011;4328;48.622;9.230;2022-08-01T12:37:48;2.78;;;2.50;;
8580;SDS011;4328;48.622;9.230;2022-08-01T12:40:17;2.90;;;2.63;;
8580;SDS011;4328;48.622;9.230;2022-08-01T12:42:45;3.40;;;2.60;;
8580;SDS011;4328;48.622;9.230;2022-08-01T12:45:14;3.03;;;2.83;;
8580;SDS011;4328;48.622;9.230;2022-08-01T12:47:43;2.80;;;2.60;;
8580;SDS011;4328;48.622;9.230;2022-08-01T12:50:15;2.50;;;2.30;;
8580;SDS011;4328;48.622;9.230;2022-08-01T12:52:43;2.63;;;2.45;;
8580;SDS011;4328;48.622;9.230;2022-08-01T12:55:11;2.88;;;2.60;;
8580;SDS011;4328;48.622;9.230;2022-08-01T12:57:40;3.08;;;2.70;;
8580;SDS011;4328;48.622;9.230;2022-08-01T13:00:20;4.82;;;2.60;;
8580;SDS011;4328;48.622;9.230;2022-08-01T13:02:49;2.47;;;2.28;;
8580;SDS011;4328;48.622;9.230;2022-08-01T13:05:18;2.75;;;2.50;;
8580;SDS011;4328;48.622;9.230;2022-08-01T13:07:46;2.58;;;2.47;;
8580;SDS011;4328;48.622;9.230;2022-08-01T13:10:15;3.33;;;2.38;;
8580;SDS011;4328;48.622;9.230;2022-08-01T13:12:51;3.25;;;2.10;;
8580;SDS011;4328;48.622;9.230;2022-08-01T13:15:24;4.78;;;2.38;;
8580;SDS011;4328;48.622;9.230;2022-08-01T13:17:53;2.75;;;2.40;;
8580;SDS011;4328;48.622;9.230;2022-08-01T13:20:22;3.78;;;2.60;;
8580;SDS011;4328;48.622;9.230;2022-08-01T13:22:54;3.42;;;2.15;;
8580;SDS011;4328;48.622;9.230;2022-08-01T13:25:21;2.42;;;2.20;;
8580;SDS011;4328;48.622;9.230;2022-08-01T13:27:47;2.50;;;2.30;;
8580;SDS011;4328;48.622;9.230;2022-08-01T13:30:15;3.08;;;2.50;;
8580;SDS011;4328;48.622;9.230;2022-08-01T13:32:42;4.22;;;2.40;;
8580;SDS011;4328;48.622;9.230;2022-08-01T13:35:10;3.85;;;2.03;;
8580;SDS011;4328;48.622;9.230;2022-08-01T13:37:40;2.58;;;2.38;;
8580;SDS011;4328;48.622;9.230;2022-08-01T13:40:09;2.40;;;2.13;;
8580;SDS011;4328;48.622;9.230;2022-08-01T13:42:37;2.63;;;2.05;;
8580;SDS011;4328;48.622;9.230;2022-08-01T13:45:04;2.28;;;1.88;;
8580;SDS011;4328;48.622;9.230;2022-08-01T13:47:35;2.83;;;1.90;;
8580;SDS011;4328;48.622;9.230;2022-08-01T13:50:02;2.35;;;2.10;;
8580;SDS011;4328;48.622;9.230;2022-08-01T13:52:29;2.88;;;2.00;;
8580;SDS011;4328;48.622;9.230;2022-08-01T13:54:58;2.47;;;2.28;;
8580;SDS011;4328;48.622;9.230;2022-08-01T13:57:25;2.25;;;2.00;;
8580;SDS011;4328;48.622;9.230;2022-08-01T13:59:51;4.03;;;2.22;;
8580;SDS011;4328;48.622;9.230;2022-08-01T14:02:18;2.35;;;2.15;;
8580;SDS011;4328;48.622;9.230;2022-08-01T14:04:44;2.50;;;2.30;;
8580;SDS011;4328;48.622;9.230;2022-08-01T14:07:12;2.28;;;2.15;;
8580;SDS011;4328;48.622;9.230;2022-08-01T14:09:39;2.58;;;2.38;;
8580;SDS011;4328;48.622;9.230;2022-08-01T14:12:07;3.00;;;2.15;;
8580;SDS011;4328;48.622;9.230;2022-08-01T14:14:34;2.20;;;2.00;;
8580;SDS011;4328;48.622;9.230;2022-08-01T14:17:01;3.80;;;2.00;;
8580;SDS011;4328;48.622;9.230;2022-08-01T14:19:28;3.20;;;2.10;;
8580;SDS011;4328;48.622;9.230;2022-08-01T14:21:55;3.30;;;2.00;;
8580;SDS011;4328;48.622;9.230;2022-08-01T14:24:22;2.60;;;2.40;;
8580;SDS011;4328;48.622;9.230;2022-08-01T14:26:49;2.85;;;2.15;;
8580;SDS011;4328;48.622;9.230;2022-08-01T14:29:17;3.58;;;2.20;;
8580;SDS011;4328;48.622;9.230;2022-08-01T14:31:44;3.85;;;2.08;;
8580;SDS011;4328;48.622;9.230;2022-08-01T14:34:10;2.17;;;1.98;;
8580;SDS011;4328;48.622;9.230;2022-08-01T14:36:38;5.07;;;2.13;;
8580;SDS011;4328;48.622;9.230;2022-08-01T14:39:04;2.55;;;2.08;;
8580;SDS011;4328;48.622;9.230;2022-08-01T14:41:31;4.63;;;1.90;;
8580;SDS011;4328;48.622;9.230;2022-08-01T14:43:57;2.20;;;2.00;;
8580;SDS011;4328;48.622;9.230;2022-08-01T14:46:26;1.80;;;1.70;;
8580;SDS011;4328;48.622;9.230;2022-08-01T14:48:52;3.38;;;1.90;;
8580;SDS011;4328;48.622;9.230;2022-08-01T14:51:19;2.25;;;2.05;;
8580;SDS011;4328;48.622;9.230;2022-08-01T14:53:45;2.08;;;1.98;;
8580;SDS011;4328;48.622;9.230;2022-08-01T14:56:12;3.65;;;1.90;;
8580;SDS011;4328;48.622;9.230;2022-08-01T14:58:39;1.80;;;1.70;;
8580;SDS011;4328;48.622;9.230;2022-08-01T15:01:06;2.65;;;1.90;;
8580;SDS011;4328;48.622;9.230;2022-08-01T15:03:33;1.80;;;1.70;;
8580;SDS011;4328;48.622;9.230;2022-08-01T15:06:00;3.03;;;2.15;;
8580;SDS011;4328;48.622;9.230;2022-08-01T15:08:27;2.33;;;2.13;;
8580;SDS011;4328;48.622;9.230;2022-08-01T15:10:54;3.15;;;2.20;;
8580;SDS011;4328;48.622;9.230;2022-08-01T15:13:21;3.00;;;1.85;;
8580;SDS011;4328;48.622;9.230;2022-08-01T15:15:48;3.03;;;1.70;;
8580;SDS011;4328;48.622;9.230;2022-08-01T15:18:14;2.60;;;2.00;;
8580;SDS011;4328;48.622;9.230;2022-08-01T15:20:43;4.90;;;2.13;;
8580;SDS011;4328;48.622;9.230;2022-08-01T15:23:10;3.30;;;1.88;;
8580;SDS011;4328;48.622;9.230;2022-08-01T15:25:37;1.88;;;1.70;;